createdAt,value
2022-12-17T00:00:40.487Z,96538.31
2022-12-17T00:03:29.272Z,96539.06
2022-12-17T00:06:14.604Z,96551.75
2022-12-17T00:09:00.030Z,96540.53
2022-12-17T00:11:45.379Z,96543.78
2022-12-17T00:14:30.787Z,96558.44
2022-12-17T00:17:16.032Z,96556.72
2022-12-17T00:20:01.345Z,96561.38
2022-12-17T00:22:46.794Z,96557.41
2022-12-17T00:25:32.092Z,96574.50
2022-12-17T00:28:17.390Z,96571.22
2022-12-17T00:31:02.711Z,96584.16
2022-12-17T00:33:47.903Z,96587.44
2022-12-17T00:36:33.289Z,96582.84
2022-12-17T00:39:18.818Z,96598.91
2022-12-17T00:42:04.298Z,96602.91
2022-12-17T00:44:49.557Z,96607.38
2022-12-17T00:47:35.161Z,96598.91
2022-12-17T00:50:20.662Z,96605.84
2022-12-17T00:53:06.552Z,96605.59
2022-12-17T00:55:51.996Z,96605.25
2022-12-17T00:58:37.026Z,96610.16
2022-12-17T01:01:22.685Z,96616.06
2022-12-17T01:04:07.958Z,96614.41
2022-12-17T01:06:53.963Z,96618.03
2022-12-17T01:09:39.492Z,96618.63
2022-12-17T01:12:24.941Z,96620.47
2022-12-17T01:15:10.276Z,96631.63
2022-12-17T01:17:56.311Z,96634.56
2022-12-17T01:20:42.157Z,96649.13
2022-12-17T01:23:27.740Z,96651.91
2022-12-17T01:26:15.741Z,96643.00
2022-12-17T01:29:01.294Z,96653.78
2022-12-17T01:31:47.422Z,96654.97
2022-12-17T01:34:32.631Z,96662.22
2022-12-17T01:37:17.997Z,96664.34
2022-12-17T01:40:03.463Z,96664.75
2022-12-17T01:43:01.560Z,96667.13
2022-12-17T01:46:02.346Z,96669.22
2022-12-17T01:48:59.543Z,96666.50
2022-12-17T01:51:46.555Z,96675.03
2022-12-17T01:54:32.576Z,96680.69
2022-12-17T01:57:19.167Z,96678.56
2022-12-17T02:00:25.608Z,96684.16
2022-12-17T02:03:11.119Z,96685.09
2022-12-17T02:06:41.957Z,96691.63
2022-12-17T02:09:49.874Z,96692.59
2022-12-17T02:12:54.956Z,96699.63
2022-12-17T02:15:58.641Z,96695.13
2022-12-17T02:18:54.977Z,96697.03
2022-12-17T02:21:41.641Z,96695.66
2022-12-17T02:24:49.568Z,96700.44
2022-12-17T02:27:36.014Z,96699.84
2022-12-17T02:30:25.789Z,96697.03
2022-12-17T02:33:12.069Z,96698.44
2022-12-17T02:36:07.165Z,96703.28
2022-12-17T02:38:52.825Z,96708.28
2022-12-17T02:41:47.713Z,96698.94
2022-12-17T02:44:36.349Z,96709.84
2022-12-17T02:47:25.480Z,96710.28
2022-12-17T02:50:10.900Z,96715.53
2022-12-17T02:53:04.422Z,96719.28
2022-12-17T02:55:50.161Z,96719.94
2022-12-17T02:58:35.703Z,96734.13
2022-12-17T03:01:21.320Z,96737.38
2022-12-17T03:04:06.553Z,96742.13
2022-12-17T03:06:52.097Z,96737.22
2022-12-17T03:09:37.565Z,96736.56
2022-12-17T03:12:23.198Z,96750.56
2022-12-17T03:15:08.584Z,96743.06
2022-12-17T03:17:53.975Z,96757.25
2022-12-17T03:20:39.441Z,96760.28
2022-12-17T03:23:27.809Z,96767.50
2022-12-17T03:26:17.286Z,96765.19
2022-12-17T03:29:02.922Z,96767.03
2022-12-17T03:31:48.297Z,96775.94
2022-12-17T03:34:33.825Z,96779.63
2022-12-17T03:37:19.416Z,96771.38
2022-12-17T03:40:04.848Z,96778.16
2022-12-17T03:42:50.328Z,96772.41
2022-12-17T03:45:35.852Z,96774.94
2022-12-17T03:48:31.666Z,96784.94
2022-12-17T03:51:17.648Z,96781.38
2022-12-17T03:54:03.670Z,96783.31
2022-12-17T03:56:49.844Z,96792.47
2022-12-17T03:59:35.138Z,96794.31
2022-12-17T04:02:20.844Z,96792.66
2022-12-17T04:05:06.526Z,96802.22
2022-12-17T04:08:11.735Z,96805.47
2022-12-17T04:10:57.079Z,96801.34
2022-12-17T04:13:42.951Z,96805.84
2022-12-17T04:16:31.363Z,96802.13
2022-12-17T04:19:17.182Z,96801.19
2022-12-17T04:22:02.209Z,96808.91
2022-12-17T04:24:47.817Z,96813.91
2022-12-17T04:27:33.096Z,96820.69
2022-12-17T04:30:18.490Z,96825.44
2022-12-17T04:33:04.090Z,96829.94
2022-12-17T04:35:49.525Z,96826.25
2022-12-17T04:38:35.209Z,96841.88
2022-12-17T04:41:20.488Z,96840.47
2022-12-17T04:44:05.877Z,96844.47
2022-12-17T04:46:51.257Z,96849.91
2022-12-17T04:49:36.666Z,96854.47
2022-12-17T04:52:22.626Z,96854.09
2022-12-17T04:55:08.133Z,96858.00
2022-12-17T04:58:13.386Z,96854.13
2022-12-17T05:00:58.775Z,96864.44
2022-12-17T05:03:44.170Z,96865.63
2022-12-17T05:06:29.667Z,96867.69
2022-12-17T05:09:15.300Z,96876.34
2022-12-17T05:12:00.835Z,96880.25
2022-12-17T05:14:46.469Z,96879.88
2022-12-17T05:17:31.909Z,96879.66
2022-12-17T05:20:17.305Z,96893.84
2022-12-17T05:23:02.737Z,96894.25
2022-12-17T05:25:48.310Z,96889.75
2022-12-17T05:28:34.016Z,96900.66
2022-12-17T05:31:19.784Z,96907.88
2022-12-17T05:34:05.219Z,96915.50
2022-12-17T05:36:50.773Z,96918.34
2022-12-17T05:39:36.121Z,96920.00
2022-12-17T05:42:21.590Z,96924.56
2022-12-17T05:45:07.089Z,96923.31
2022-12-17T05:47:52.582Z,96930.00
2022-12-17T05:50:38.111Z,96919.41
2022-12-17T05:53:25.006Z,96936.28
2022-12-17T05:56:12.105Z,96932.69
2022-12-17T05:58:58.304Z,96948.94
2022-12-17T06:01:43.954Z,96949.56
2022-12-17T06:04:30.041Z,96957.88
2022-12-17T06:07:15.374Z,96968.16
2022-12-17T06:10:00.809Z,96964.91
2022-12-17T06:12:46.280Z,96970.78
2022-12-17T06:15:31.689Z,96965.25
2022-12-17T06:18:17.589Z,96976.41
2022-12-17T06:21:03.629Z,96974.81
2022-12-17T06:23:48.991Z,96973.59
2022-12-17T06:26:34.682Z,96977.81
2022-12-17T06:29:20.105Z,96978.97
2022-12-17T06:32:05.361Z,96984.06
2022-12-17T06:34:50.478Z,96987.22
2022-12-17T06:37:35.888Z,96984.38
2022-12-17T06:40:21.485Z,96985.72
2022-12-17T06:43:16.258Z,96993.56
2022-12-17T06:46:01.514Z,97004.44
2022-12-17T06:48:46.895Z,97015.09
2022-12-17T06:51:32.372Z,97017.13
2022-12-17T06:54:17.697Z,97023.16
2022-12-17T06:57:03.170Z,97027.69
2022-12-17T06:59:48.576Z,97026.78
2022-12-17T07:02:34.093Z,97030.09
2022-12-17T07:05:19.486Z,97039.16
2022-12-17T07:08:04.962Z,97040.53
2022-12-17T07:10:50.505Z,97043.34
2022-12-17T07:13:36.383Z,97047.66
2022-12-17T07:16:22.045Z,97042.13
2022-12-17T07:19:07.310Z,97047.91
2022-12-17T07:21:52.634Z,97042.41
2022-12-17T07:24:38.063Z,97043.56
2022-12-17T07:27:23.393Z,97038.63
2022-12-17T07:30:08.907Z,97044.19
2022-12-17T07:32:54.328Z,97049.63
2022-12-17T07:35:39.873Z,97049.59
2022-12-17T07:38:25.795Z,97059.63
2022-12-17T07:41:11.157Z,97063.31
2022-12-17T07:43:56.701Z,97059.56
2022-12-17T07:46:42.032Z,97065.66
2022-12-17T07:49:27.527Z,97057.91
2022-12-17T07:52:12.929Z,97069.94
2022-12-17T07:54:58.435Z,97067.16
2022-12-17T07:57:44.537Z,97085.09
2022-12-17T08:00:31.149Z,97084.25
2022-12-17T08:03:18.626Z,97090.38
2022-12-17T08:06:04.482Z,97093.00
2022-12-17T08:08:50.036Z,97095.53
2022-12-17T08:11:35.992Z,97094.00
2022-12-17T08:14:21.169Z,97094.31
2022-12-17T08:17:06.652Z,97108.91
2022-12-17T08:19:51.990Z,97117.53
2022-12-17T08:22:37.421Z,97114.88
2022-12-17T08:25:23.479Z,97115.81
2022-12-17T08:28:49.085Z,97121.00
2022-12-17T08:31:24.126Z,97131.56
2022-12-17T08:34:09.426Z,97140.19
2022-12-17T08:36:54.919Z,97138.97
2022-12-17T08:39:40.088Z,97138.16
2022-12-17T08:42:25.493Z,97142.97
2022-12-17T08:45:10.958Z,97140.69
2022-12-17T08:48:00.566Z,97145.28
2022-12-17T08:50:49.184Z,97148.47
2022-12-17T08:53:35.129Z,97146.66
2022-12-17T08:56:20.597Z,97145.75
2022-12-17T08:59:05.840Z,97156.06
2022-12-17T09:01:51.242Z,97146.97
2022-12-17T09:04:36.794Z,97149.28
2022-12-17T09:07:22.229Z,97143.94
2022-12-17T09:10:07.592Z,97142.22
2022-12-17T09:12:52.888Z,97153.22
2022-12-17T09:15:55.174Z,97140.84
2022-12-17T09:18:40.828Z,97144.97
2022-12-17T09:21:27.157Z,97146.66
2022-12-17T09:24:12.742Z,97163.41
2022-12-17T09:26:58.038Z,97157.78
2022-12-17T09:29:43.085Z,97164.88
2022-12-17T09:32:36.078Z,97169.53
2022-12-17T09:35:21.620Z,97163.88
2022-12-17T09:38:14.767Z,97161.56
2022-12-17T09:41:05.871Z,97170.84
2022-12-17T09:44:23.882Z,97164.84
2022-12-17T09:47:48.139Z,97173.00
2022-12-17T09:50:34.849Z,97175.13
2022-12-17T09:53:38.419Z,97173.09
2022-12-17T09:56:25.228Z,97182.75
2022-12-17T09:59:10.375Z,97183.66
2022-12-17T10:01:58.762Z,97187.88
2022-12-17T10:04:56.667Z,97192.53
2022-12-17T10:07:45.453Z,97204.03
2022-12-17T10:10:41.769Z,97196.88
2022-12-17T10:13:37.637Z,97197.63
2022-12-17T10:16:47.935Z,97198.09
2022-12-17T10:19:42.501Z,97195.47
2022-12-17T10:22:30.972Z,97203.47
2022-12-17T10:25:33.387Z,97218.75
2022-12-17T10:28:30.149Z,97225.34
2022-12-17T10:31:16.572Z,97227.81
2022-12-17T10:34:02.477Z,97226.50
2022-12-17T10:36:48.214Z,97216.41
2022-12-17T10:39:44.376Z,97214.53
2022-12-17T10:42:48.595Z,97218.78
2022-12-17T10:45:46.463Z,97206.53
2022-12-17T10:48:49.891Z,97224.13
2022-12-17T10:51:55.535Z,97217.56
2022-12-17T10:54:50.390Z,97229.69
2022-12-17T10:57:56.384Z,97234.03
2022-12-17T11:00:51.756Z,97232.88
2022-12-17T11:03:50.897Z,97239.28
2022-12-17T11:06:47.225Z,97243.09
2022-12-17T11:10:03.664Z,97236.63
2022-12-17T11:13:03.460Z,97241.63
2022-12-17T11:16:23.683Z,97242.31
2022-12-17T11:19:17.273Z,97244.81
2022-12-17T11:22:06.288Z,97248.00
2022-12-17T11:25:02.731Z,97242.53
2022-12-17T11:28:00.102Z,97244.06
2022-12-17T11:30:47.165Z,97245.09
2022-12-17T11:33:43.716Z,97241.81
2022-12-17T11:36:44.925Z,97248.56
2022-12-17T11:40:02.546Z,97250.13
2022-12-17T11:43:02.605Z,97238.31
2022-12-17T11:45:56.133Z,97247.59
2022-12-17T11:49:03.003Z,97252.97
2022-12-17T11:52:11.364Z,97242.66
2022-12-17T11:55:26.707Z,97245.88
2022-12-17T11:58:33.678Z,97241.72
2022-12-17T12:01:38.966Z,97246.19
2022-12-17T12:04:46.810Z,97249.03
2022-12-17T12:07:52.189Z,97242.31
2022-12-17T12:10:49.670Z,97246.94
2022-12-17T12:14:06.219Z,97247.56
2022-12-17T12:17:10.249Z,97254.59
2022-12-17T12:20:20.870Z,97250.09
2022-12-17T12:23:44.007Z,97242.78
2022-12-17T12:26:46.640Z,97237.78
2022-12-17T12:29:59.232Z,97234.56
2022-12-17T12:33:22.971Z,97256.22
2022-12-17T12:36:11.490Z,97250.19
2022-12-17T12:39:02.383Z,97244.94
2022-12-17T12:42:13.726Z,97242.09
2022-12-17T12:45:13.719Z,97242.41
2022-12-17T12:48:19.630Z,97246.78
2022-12-17T12:51:34.102Z,97251.25
2022-12-17T12:54:39.908Z,97251.00
2022-12-17T12:57:54.850Z,97248.38
2022-12-17T13:00:43.194Z,97245.94
2022-12-17T13:03:46.850Z,97247.75
2022-12-17T13:06:43.668Z,97251.22
2022-12-17T13:09:20.628Z,97248.28
2022-12-17T13:12:04.186Z,97259.00
2022-12-17T13:14:59.287Z,97250.53
2022-12-17T13:17:59.097Z,97246.00
2022-12-17T13:20:33.481Z,97242.63
2022-12-17T13:23:30.046Z,97252.13
2022-12-17T13:26:22.190Z,97264.03
2022-12-17T13:29:29.694Z,97258.81
2022-12-17T13:32:14.308Z,97265.09
2022-12-17T13:35:17.886Z,97260.09
2022-12-17T13:38:12.416Z,97267.88
2022-12-17T13:41:08.109Z,97274.97
2022-12-17T13:43:50.586Z,97280.53
2022-12-17T13:46:23.713Z,97280.31
2022-12-17T13:49:03.344Z,97292.47
2022-12-17T13:51:33.442Z,97301.19
2022-12-17T13:54:03.844Z,97309.31
2022-12-17T13:56:37.430Z,97297.53
2022-12-17T13:59:09.081Z,97300.38
2022-12-17T14:01:49.293Z,97314.28
2022-12-17T14:04:28.953Z,97319.38
2022-12-17T14:07:00.260Z,97320.84
2022-12-17T14:09:34.985Z,97323.19
2022-12-17T14:12:23.884Z,97317.97
2022-12-17T14:15:08.313Z,97320.00
2022-12-17T14:17:44.585Z,97324.47
2022-12-17T14:20:19.362Z,97325.09
2022-12-17T14:22:53.876Z,97335.69
2022-12-17T14:25:43.390Z,97342.28
2022-12-17T14:28:31.095Z,97339.25
2022-12-17T14:31:26.712Z,97341.38
2022-12-17T14:34:11.180Z,97337.91
2022-12-17T14:36:43.912Z,97336.69
2022-12-17T14:39:25.888Z,97334.38
2022-12-17T14:42:32.286Z,97346.34
2022-12-17T14:45:07.669Z,97345.72
2022-12-17T14:47:37.463Z,97361.69
2022-12-17T14:50:13.183Z,97361.19
2022-12-17T14:52:46.681Z,97363.41
2022-12-17T14:55:58.465Z,97366.63
2022-12-17T14:58:27.620Z,97370.47
2022-12-17T15:01:12.996Z,97368.38
2022-12-17T15:03:47.939Z,97374.84
2022-12-17T15:06:19.839Z,97379.03
2022-12-17T15:08:49.028Z,97371.63
2022-12-17T15:11:20.304Z,97376.31
2022-12-17T15:13:52.831Z,97381.91
2022-12-17T15:16:22.903Z,97388.16
2022-12-17T15:18:49.716Z,97390.44
2022-12-17T15:21:18.457Z,97393.56
2022-12-17T15:23:47.055Z,97399.44
2022-12-17T15:26:15.146Z,97396.84
2022-12-17T15:28:42.867Z,97398.31
2022-12-17T15:31:12.542Z,97400.59
2022-12-17T15:33:40.298Z,97397.63
2022-12-17T15:36:08.009Z,97404.41
2022-12-17T15:38:35.032Z,97412.03
2022-12-17T15:41:30.686Z,97406.75
2022-12-17T15:43:57.430Z,97408.50
2022-12-17T15:46:24.299Z,97404.25
2022-12-17T15:48:51.315Z,97406.06
2022-12-17T15:51:20.911Z,97400.94
2022-12-17T15:53:48.266Z,97406.06
2022-12-17T15:56:27.263Z,97398.41
2022-12-17T15:58:57.341Z,97405.56
2022-12-17T16:01:24.837Z,97407.50
2022-12-17T16:03:55.110Z,97414.47
2022-12-17T16:06:22.077Z,97419.28
2022-12-17T16:08:48.892Z,97416.34
2022-12-17T16:11:16.113Z,97420.38
2022-12-17T16:13:43.051Z,97417.06
2022-12-17T16:16:10.218Z,97416.50
2022-12-17T16:18:38.518Z,97410.69
2022-12-17T16:21:08.301Z,97410.97
2022-12-17T16:23:36.142Z,97412.03
2022-12-17T16:26:05.376Z,97413.97
2022-12-17T16:28:32.740Z,97422.06
2022-12-17T16:31:09.363Z,97418.34
2022-12-17T16:33:39.794Z,97427.28
2022-12-17T16:36:09.386Z,97428.91
2022-12-17T16:38:36.729Z,97427.63
2022-12-17T16:41:03.982Z,97430.38
2022-12-17T16:43:34.202Z,97431.09
2022-12-17T16:46:01.475Z,97432.94
2022-12-17T16:48:28.293Z,97435.34
2022-12-17T16:50:55.083Z,97435.97
2022-12-17T16:53:22.313Z,97434.31
2022-12-17T16:55:49.715Z,97429.22
2022-12-17T16:58:17.904Z,97445.31
2022-12-17T17:00:46.159Z,97442.00
2022-12-17T17:03:13.149Z,97442.81
2022-12-17T17:05:40.551Z,97449.34
2022-12-17T17:08:07.564Z,97442.56
2022-12-17T17:10:36.899Z,97452.03
2022-12-17T17:13:04.157Z,97445.22
2022-12-17T17:15:31.096Z,97452.09
2022-12-17T17:18:01.784Z,97453.13
2022-12-17T17:20:32.242Z,97455.75
2022-12-17T17:22:59.618Z,97453.03
2022-12-17T17:25:43.945Z,97455.53
2022-12-17T17:28:13.541Z,97454.34
2022-12-17T17:30:40.286Z,97452.84
2022-12-17T17:33:07.056Z,97464.34
2022-12-17T17:35:33.807Z,97460.75
2022-12-17T17:38:00.894Z,97471.75
2022-12-17T17:40:27.649Z,97477.25
2022-12-17T17:42:54.482Z,97488.25
2022-12-17T17:45:21.318Z,97480.06
2022-12-17T17:47:48.064Z,97481.31
2022-12-17T17:50:15.930Z,97486.59
2022-12-17T17:52:42.689Z,97478.28
2022-12-17T17:55:09.582Z,97474.56
2022-12-17T17:57:36.320Z,97482.63
2022-12-17T18:00:04.029Z,97482.50
2022-12-17T18:02:31.081Z,97491.50
2022-12-17T18:05:00.921Z,97507.94
2022-12-17T18:07:28.257Z,97503.94
2022-12-17T18:09:56.215Z,97510.38
2022-12-17T18:12:41.849Z,97507.38
2022-12-17T18:15:14.861Z,97504.88
2022-12-17T18:17:49.291Z,97509.59
2022-12-17T18:20:16.569Z,97507.81
2022-12-17T18:22:45.854Z,97507.19
2022-12-17T18:25:13.112Z,97511.94
2022-12-17T18:27:39.958Z,97513.13
2022-12-17T18:30:07.481Z,97518.69
2022-12-17T18:32:34.390Z,97515.81
2022-12-17T18:35:01.312Z,97518.94
2022-12-17T18:37:28.208Z,97509.03
2022-12-17T18:39:55.064Z,97517.78
2022-12-17T18:42:40.106Z,97517.53
2022-12-17T18:45:07.698Z,97519.94
2022-12-17T18:47:34.438Z,97530.25
2022-12-17T18:50:01.275Z,97532.13
2022-12-17T18:52:28.081Z,97538.72
2022-12-17T18:54:54.929Z,97536.69
2022-12-17T18:57:21.835Z,97546.72
2022-12-17T18:59:49.289Z,97535.72
2022-12-17T19:02:16.329Z,97560.38
2022-12-17T19:04:43.254Z,97554.09
2022-12-17T19:07:10.657Z,97557.41
2022-12-17T19:09:39.411Z,97558.81
2022-12-17T19:12:08.914Z,97564.19
2022-12-17T19:14:36.837Z,97568.69
2022-12-17T19:17:05.758Z,97561.44
2022-12-17T19:19:33.582Z,97559.41
2022-12-17T19:22:00.692Z,97564.97
2022-12-17T19:24:27.859Z,97557.41
2022-12-17T19:26:55.040Z,97568.34
2022-12-17T19:29:22.120Z,97558.22
2022-12-17T19:31:49.870Z,97567.06
2022-12-17T19:34:18.861Z,97568.06
2022-12-17T19:36:47.201Z,97565.53
2022-12-17T19:39:17.929Z,97570.50
2022-12-17T19:41:46.215Z,97565.38
2022-12-17T19:44:16.168Z,97565.75
2022-12-17T19:46:44.766Z,97574.53
2022-12-17T19:49:14.790Z,97568.94
2022-12-17T19:51:44.396Z,97566.84
2022-12-17T19:54:15.532Z,97570.41
2022-12-17T19:56:44.757Z,97580.34
2022-12-17T19:59:12.180Z,97581.66
2022-12-17T20:01:48.453Z,97582.94
2022-12-17T20:04:16.547Z,97579.97
2022-12-17T20:06:44.548Z,97584.22
2022-12-17T20:09:12.586Z,97573.03
2022-12-17T20:11:39.470Z,97572.88
2022-12-17T20:14:16.175Z,97568.41
2022-12-17T20:16:47.061Z,97574.28
2022-12-17T20:19:21.385Z,97575.56
2022-12-17T20:21:48.777Z,97578.59
2022-12-17T20:24:17.322Z,97575.69
2022-12-17T20:26:46.149Z,97577.91
2022-12-17T20:29:13.091Z,97573.34
2022-12-17T20:31:42.361Z,97576.47
2022-12-17T20:34:15.418Z,97587.50
2022-12-17T20:36:43.914Z,97581.94
2022-12-17T20:39:12.627Z,97587.78
2022-12-17T20:41:40.244Z,97583.59
2022-12-17T20:44:11.390Z,97583.03
2022-12-17T20:46:38.191Z,97592.88
2022-12-17T20:49:05.918Z,97585.97
2022-12-17T20:51:33.220Z,97588.38
2022-12-17T20:54:01.778Z,97592.00
2022-12-17T20:56:33.895Z,97587.31
2022-12-17T20:59:06.639Z,97588.69
2022-12-17T21:01:36.114Z,97585.41
2022-12-17T21:04:04.040Z,97586.59
2022-12-17T21:06:40.366Z,97580.09
2022-12-17T21:09:07.816Z,97583.56
2022-12-17T21:11:36.348Z,97594.94
2022-12-17T21:14:12.576Z,97591.13
2022-12-17T21:16:40.840Z,97593.69
2022-12-17T21:19:10.003Z,97595.19
2022-12-17T21:21:38.558Z,97588.13
2022-12-17T21:24:06.661Z,97592.34
2022-12-17T21:26:37.189Z,97595.63
2022-12-17T21:29:06.466Z,97597.69
2022-12-17T21:31:40.683Z,97591.34
2022-12-17T21:34:12.390Z,97601.97
2022-12-17T21:36:39.626Z,97607.41
2022-12-17T21:39:09.349Z,97606.63
2022-12-17T21:41:42.937Z,97606.84
2022-12-17T21:44:15.161Z,97600.66
2022-12-17T21:46:43.027Z,97607.53
2022-12-17T21:49:10.450Z,97609.59
2022-12-17T21:51:37.499Z,97613.75
2022-12-17T21:54:08.137Z,97613.47
2022-12-17T21:56:36.370Z,97610.78
2022-12-17T21:59:03.661Z,97615.53
2022-12-17T22:01:33.666Z,97621.06
2022-12-17T22:04:03.313Z,97616.09
2022-12-17T22:06:34.227Z,97617.91
2022-12-17T22:09:22.742Z,97618.13
2022-12-17T22:12:14.217Z,97620.91
2022-12-17T22:14:41.014Z,97624.31
2022-12-17T22:17:07.819Z,97623.88
2022-12-17T22:19:34.578Z,97615.38
2022-12-17T22:22:01.390Z,97613.28
2022-12-17T22:24:28.184Z,97620.41
2022-12-17T22:27:01.654Z,97611.09
2022-12-17T22:29:47.349Z,97615.78
2022-12-17T22:32:33.197Z,97622.97
2022-12-17T22:36:28.108Z,97622.81
2022-12-17T22:41:56.332Z,97624.88
2022-12-17T22:44:34.120Z,97630.19
2022-12-17T22:44:45.479Z,97636.25
2022-12-17T22:46:19.640Z,97645.25
2022-12-17T22:48:46.928Z,97636.19
2022-12-17T22:51:20.697Z,97633.88
2022-12-17T22:53:53.555Z,97633.94
2022-12-17T22:56:34.630Z,97636.50
2022-12-17T22:59:16.742Z,97640.19
2022-12-17T23:01:43.811Z,97633.31
2022-12-17T23:04:13.714Z,97636.34
2022-12-17T23:06:41.873Z,97637.88
2022-12-17T23:09:08.648Z,97636.50
2022-12-17T23:11:35.498Z,97640.56
2022-12-17T23:14:02.280Z,97638.69
2022-12-17T23:16:29.207Z,97630.63
2022-12-17T23:18:56.118Z,97647.66
2022-12-17T23:21:25.624Z,97642.22
2022-12-17T23:23:55.306Z,97640.81
2022-12-17T23:26:29.310Z,97638.16
2022-12-17T23:28:59.094Z,97642.59
2022-12-17T23:31:30.931Z,97641.91
2022-12-17T23:33:57.826Z,97636.78
2022-12-17T23:36:26.254Z,97633.91
2022-12-17T23:38:55.580Z,97628.94
2022-12-17T23:41:26.911Z,97631.03
2022-12-17T23:43:54.663Z,97615.63
2022-12-17T23:46:23.689Z,97619.31
2022-12-17T23:48:51.372Z,97610.53
2022-12-17T23:51:21.681Z,97606.91
2022-12-17T23:53:49.089Z,97603.00
2022-12-17T23:56:18.609Z,97599.72
2022-12-17T23:58:46.721Z,97603.50
